sensor_id;sensor_type;location;lat;lon;timestamp;pressure;altitude;pressure_sealevel;temperature;humidity
61571;BME280;47463;49.884;10.010;2024-02-21T00:00:01;102900;;;6.3;78
61571;BME280;47463;49.884;10.010;2024-02-21T00:05:01;102890.00000000001;;;6.4;78
61571;BME280;47463;49.884;10.010;2024-02-21T00:10:01;102880;;;6.3;78
61571;BME280;47463;49.884;10.010;2024-02-21T00:15:01;102870;;;6.3;78
61571;BME280;47463;49.884;10.010;2024-02-21T00:20:01;102880;;;6.3;78
61571;BME280;47463;49.884;10.010;2024-02-21T00:25:01;102870;;;6.3;78
61571;BME280;47463;49.884;10.010;2024-02-21T00:30:01;102850;;;6.2;79
61571;BME280;47463;49.884;10.010;2024-02-21T00:35:01;102850;;;6.3;78
61571;BME280;47463;49.884;10.010;2024-02-21T00:40:01;102850;;;6.3;78
61571;BME280;47463;49.884;10.010;2024-02-21T00:45:01;102850;;;6.3;78
61571;BME280;47463;49.884;10.010;2024-02-21T00:50:01;102840.00000000001;;;6.2;78
61571;BME280;47463;49.884;10.010;2024-02-21T00:55:01;102820;;;6.1;79
61571;BME280;47463;49.884;10.010;2024-02-21T01:00:01;102820;;;6;79
61571;BME280;47463;49.884;10.010;2024-02-21T01:05:01;102809.99999999999;;;6;79
61571;BME280;47463;49.884;10.010;2024-02-21T01:10:01;102800;;;6.1;79
61571;BME280;47463;49.884;10.010;2024-02-21T01:15:01;102790.00000000001;;;6;79
61571;BME280;47463;49.884;10.010;2024-02-21T01:20:01;102790.00000000001;;;6;79
61571;BME280;47463;49.884;10.010;2024-02-21T01:25:01;102780;;;6;79
61571;BME280;47463;49.884;10.010;2024-02-21T01:30:01;102770;;;6;79
61571;BME280;47463;49.884;10.010;2024-02-21T01:35:01;102770;;;6;79
61571;BME280;47463;49.884;10.010;2024-02-21T01:40:01;102770;;;6;79
61571;BME280;47463;49.884;10.010;2024-02-21T01:45:01;102770;;;6;80
61571;BME280;47463;49.884;10.010;2024-02-21T01:50:01;102770;;;6;79
61571;BME280;47463;49.884;10.010;2024-02-21T01:55:01;102759.99999999999;;;6;80
61571;BME280;47463;49.884;10.010;2024-02-21T02:00:01;102750;;;6;80
61571;BME280;47463;49.884;10.010;2024-02-21T02:05:01;102740.00000000001;;;5.9;80
61571;BME280;47463;49.884;10.010;2024-02-21T02:10:01;102730;;;5.9;81
61571;BME280;47463;49.884;10.010;2024-02-21T02:15:01;102730;;;5.8;82
61571;BME280;47463;49.884;10.010;2024-02-21T02:20:01;102740.00000000001;;;5.7;82
61571;BME280;47463;49.884;10.010;2024-02-21T02:25:01;102750;;;5.7;83
61571;BME280;47463;49.884;10.010;2024-02-21T02:30:01;102730;;;5.6;83
61571;BME280;47463;49.884;10.010;2024-02-21T02:35:01;102730;;;5.6;84
61571;BME280;47463;49.884;10.010;2024-02-21T02:40:01;102709.99999999999;;;5.7;84
61571;BME280;47463;49.884;10.010;2024-02-21T02:45:01;102709.99999999999;;;5.7;84
61571;BME280;47463;49.884;10.010;2024-02-21T02:50:01;102690.00000000001;;;5.6;84
61571;BME280;47463;49.884;10.010;2024-02-21T02:55:01;102680;;;5.6;84
61571;BME280;47463;49.884;10.010;2024-02-21T03:00:01;102670;;;5.7;84
61571;BME280;47463;49.884;10.010;2024-02-21T03:05:01;102680;;;5.7;84
61571;BME280;47463;49.884;10.010;2024-02-21T03:10:01;102700;;;5.7;84
61571;BME280;47463;49.884;10.010;2024-02-21T03:15:01;102700;;;5.7;84
61571;BME280;47463;49.884;10.010;2024-02-21T03:20:01;102709.99999999999;;;5.8;84
61571;BME280;47463;49.884;10.010;2024-02-21T03:25:01;102700;;;5.8;84
61571;BME280;47463;49.884;10.010;2024-02-21T03:30:01;102700;;;5.7;84
61571;BME280;47463;49.884;10.010;2024-02-21T03:35:01;102690.00000000001;;;5.6;84
61571;BME280;47463;49.884;10.010;2024-02-21T03:40:01;102680;;;5.6;84
61571;BME280;47463;49.884;10.010;2024-02-21T03:45:01;102670;;;5.6;84
61571;BME280;47463;49.884;10.010;2024-02-21T03:50:01;102680;;;5.6;85
61571;BME280;47463;49.884;10.010;2024-02-21T03:55:01;102659.99999999999;;;5.5;85
61571;BME280;47463;49.884;10.010;2024-02-21T04:00:01;102650;;;5.5;85
61571;BME280;47463;49.884;10.010;2024-02-21T04:05:01;102650;;;5.5;85
61571;BME280;47463;49.884;10.010;2024-02-21T04:10:01;102640.00000000001;;;5.5;85
61571;BME280;47463;49.884;10.010;2024-02-21T04:15:01;102640.00000000001;;;5.5;85
61571;BME280;47463;49.884;10.010;2024-02-21T04:20:02;102630;;;5.5;85
61571;BME280;47463;49.884;10.010;2024-02-21T04:25:01;102640.00000000001;;;5.4;85
61571;BME280;47463;49.884;10.010;2024-02-21T04:30:01;102630;;;5.4;85
61571;BME280;47463;49.884;10.010;2024-02-21T04:35:01;102620;;;5.4;85
61571;BME280;47463;49.884;10.010;2024-02-21T04:40:01;102609.99999999999;;;5.3;85
61571;BME280;47463;49.884;10.010;2024-02-21T04:45:01;102609.99999999999;;;5.3;85
61571;BME280;47463;49.884;10.010;2024-02-21T04:50:01;102609.99999999999;;;5.2;86
61571;BME280;47463;49.884;10.010;2024-02-21T04:55:01;102620;;;5;86
61571;BME280;47463;49.884;10.010;2024-02-21T05:00:01;102609.99999999999;;;4.8;86
61571;BME280;47463;49.884;10.010;2024-02-21T05:05:01;102609.99999999999;;;4.7;86
61571;BME280;47463;49.884;10.010;2024-02-21T05:10:01;102609.99999999999;;;4.7;87
61571;BME280;47463;49.884;10.010;2024-02-21T05:15:01;102609.99999999999;;;4.8;87
61571;BME280;47463;49.884;10.010;2024-02-21T05:20:01;102600;;;4.9;87
61571;BME280;47463;49.884;10.010;2024-02-21T05:25:01;102600;;;5;87
61571;BME280;47463;49.884;10.010;2024-02-21T05:30:01;102600;;;5.2;86
61571;BME280;47463;49.884;10.010;2024-02-21T05:35:01;102590.00000000001;;;5.2;86
61571;BME280;47463;49.884;10.010;2024-02-21T05:40:01;102590.00000000001;;;5.2;86
61571;BME280;47463;49.884;10.010;2024-02-21T05:45:01;102590.00000000001;;;5.3;86
61571;BME280;47463;49.884;10.010;2024-02-21T05:50:01;102590.00000000001;;;5.2;86
61571;BME280;47463;49.884;10.010;2024-02-21T05:55:01;102590.00000000001;;;5.3;86
61571;BME280;47463;49.884;10.010;2024-02-21T06:00:02;102570;;;5.3;86
61571;BME280;47463;49.884;10.010;2024-02-21T06:05:01;102570;;;5.2;86
61571;BME280;47463;49.884;10.010;2024-02-21T06:10:01;102570;;;5.2;86
61571;BME280;47463;49.884;10.010;2024-02-21T06:15:01;102570;;;5.2;86
61571;BME280;47463;49.884;10.010;2024-02-21T06:20:01;102550;;;5.2;86
61571;BME280;47463;49.884;10.010;2024-02-21T06:25:01;102559.99999999999;;;5.2;86
61571;BME280;47463;49.884;10.010;2024-02-21T06:30:01;102559.99999999999;;;5.2;86
61571;BME280;47463;49.884;10.010;2024-02-21T06:35:01;102559.99999999999;;;5.3;86
61571;BME280;47463;49.884;10.010;2024-02-21T06:40:01;102550;;;5.3;86
61571;BME280;47463;49.884;10.010;2024-02-21T06:45:01;102559.99999999999;;;5.4;86
61571;BME280;47463;49.884;10.010;2024-02-21T06:50:01;102559.99999999999;;;5.5;85
61571;BME280;47463;49.884;10.010;2024-02-21T06:55:01;102559.99999999999;;;5.5;85
61571;BME280;47463;49.884;10.010;2024-02-21T07:00:01;102540.00000000001;;;5.5;85
61571;BME280;47463;49.884;10.010;2024-02-21T07:05:01;102540.00000000001;;;5.5;85
61571;BME280;47463;49.884;10.010;2024-02-21T07:10:01;102540.00000000001;;;5.5;85
61571;BME280;47463;49.884;10.010;2024-02-21T07:15:01;102520;;;5.5;85
61571;BME280;47463;49.884;10.010;2024-02-21T07:20:01;102530;;;5.5;85
61571;BME280;47463;49.884;10.010;2024-02-21T07:25:01;102540.00000000001;;;5.5;85
61571;BME280;47463;49.884;10.010;2024-02-21T07:30:01;102550;;;5.5;85
61571;BME280;47463;49.884;10.010;2024-02-21T07:35:01;102540.00000000001;;;5.5;85
61571;BME280;47463;49.884;10.010;2024-02-21T07:40:01;102540.00000000001;;;5.5;85
61571;BME280;47463;49.884;10.010;2024-02-21T07:45:01;102530;;;5.6;85
61571;BME280;47463;49.884;10.010;2024-02-21T07:50:01;102530;;;5.7;85
61571;BME280;47463;49.884;10.010;2024-02-21T07:55:01;102530;;;5.7;85
61571;BME280;47463;49.884;10.010;2024-02-21T08:00:01;102530;;;5.7;85
61571;BME280;47463;49.884;10.010;2024-02-21T08:05:01;102540.00000000001;;;5.7;84
61571;BME280;47463;49.884;10.010;2024-02-21T08:10:01;102530;;;5.7;84
61571;BME280;47463;49.884;10.010;2024-02-21T08:15:01;102520;;;5.8;84
61571;BME280;47463;49.884;10.010;2024-02-21T08:20:01;102520;;;5.9;84
61571;BME280;47463;49.884;10.010;2024-02-21T08:25:01;102509.99999999999;;;6.1;83
61571;BME280;47463;49.884;10.010;2024-02-21T08:30:01;102509.99999999999;;;6.3;83
61571;BME280;47463;49.884;10.010;2024-02-21T08:35:01;102509.99999999999;;;6.5;82
61571;BME280;47463;49.884;10.010;2024-02-21T08:40:01;102509.99999999999;;;6.5;82
61571;BME280;47463;49.884;10.010;2024-02-21T08:45:01;102509.99999999999;;;6.6;82
61571;BME280;47463;49.884;10.010;2024-02-21T08:50:01;102509.99999999999;;;6.6;81
61571;BME280;47463;49.884;10.010;2024-02-21T08:55:01;102509.99999999999;;;6.7;81
61571;BME280;47463;49.884;10.010;2024-02-21T09:00:01;102509.99999999999;;;6.6;80
61571;BME280;47463;49.884;10.010;2024-02-21T09:05:01;102509.99999999999;;;6.7;81
61571;BME280;47463;49.884;10.010;2024-02-21T09:10:01;102500;;;6.7;80
61571;BME280;47463;49.884;10.010;2024-02-21T09:15:01;102490.00000000001;;;6.7;80
61571;BME280;47463;49.884;10.010;2024-02-21T09:20:01;102480;;;6.8;80
61571;BME280;47463;49.884;10.010;2024-02-21T09:25:01;102480;;;6.9;80
61571;BME280;47463;49.884;10.010;2024-02-21T09:30:01;102470;;;7;79
61571;BME280;47463;49.884;10.010;2024-02-21T09:35:01;102470;;;7.2;79
61571;BME280;47463;49.884;10.010;2024-02-21T09:40:01;102470;;;7.1;78
61571;BME280;47463;49.884;10.010;2024-02-21T09:45:01;102459.99999999999;;;7;78
61571;BME280;47463;49.884;10.010;2024-02-21T09:50:01;102450;;;7.1;78
61571;BME280;47463;49.884;10.010;2024-02-21T09:55:01;102440.00000000001;;;7.2;78
61571;BME280;47463;49.884;10.010;2024-02-21T10:00:01;102430;;;7.3;78
61571;BME280;47463;49.884;10.010;2024-02-21T10:05:01;102430;;;7.3;77
61571;BME280;47463;49.884;10.010;2024-02-21T10:10:01;102420;;;7.5;78
61571;BME280;47463;49.884;10.010;2024-02-21T10:15:01;102409.99999999999;;;7.5;77
61571;BME280;47463;49.884;10.010;2024-02-21T10:20:06;102409.99999999999;;;7.5;77
61571;BME280;47463;49.884;10.010;2024-02-21T10:25:06;102400;;;7.5;76
61571;BME280;47463;49.884;10.010;2024-02-21T10:30:01;102390;;;7.7;76
61571;BME280;47463;49.884;10.010;2024-02-21T10:35:01;102390;;;7.8;76
61571;BME280;47463;49.884;10.010;2024-02-21T10:40:01;102400;;;7.9;76
61571;BME280;47463;49.884;10.010;2024-02-21T10:45:01;102390;;;7.8;75
61571;BME280;47463;49.884;10.010;2024-02-21T10:50:02;102380;;;7.9;76
61571;BME280;47463;49.884;10.010;2024-02-21T10:55:03;102360;;;8.1;76
61571;BME280;47463;49.884;10.010;2024-02-21T11:00:01;102350;;;8.2;75
61571;BME280;47463;49.884;10.010;2024-02-21T11:05:01;102350;;;8.5;75
61571;BME280;47463;49.884;10.010;2024-02-21T11:10:01;102330;;;8.3;74
61571;BME280;47463;49.884;10.010;2024-02-21T11:15:03;102320;;;8.6;74
61571;BME280;47463;49.884;10.010;2024-02-21T11:20:10;102310;;;8.6;73
61571;BME280;47463;49.884;10.010;2024-02-21T11:25:06;102290;;;8.6;73
61571;BME280;47463;49.884;10.010;2024-02-21T11:30:03;102290;;;8.7;73
61571;BME280;47463;49.884;10.010;2024-02-21T11:35:01;102290;;;8.8;72
61571;BME280;47463;49.884;10.010;2024-02-21T11:40:01;102290;;;8.8;72
61571;BME280;47463;49.884;10.010;2024-02-21T11:45:01;102280;;;8.9;71
61571;BME280;47463;49.884;10.010;2024-02-21T11:50:01;102260;;;9.2;71
61571;BME280;47463;49.884;10.010;2024-02-21T11:55:01;102240;;;9.4;71
61571;BME280;47463;49.884;10.010;2024-02-21T12:00:10;102240;;;9.4;70
61571;BME280;47463;49.884;10.010;2024-02-21T12:05:01;102240;;;9.4;70
61571;BME280;47463;49.884;10.010;2024-02-21T12:10:01;102220;;;9.4;68
61571;BME280;47463;49.884;10.010;2024-02-21T12:15:01;102200;;;9.7;69
61571;BME280;47463;49.884;10.010;2024-02-21T12:20:01;102180;;;9.5;68
61571;BME280;47463;49.884;10.010;2024-02-21T12:25:02;102170;;;9.6;67
61571;BME280;47463;49.884;10.010;2024-02-21T12:30:01;102160;;;9.9;68
61571;BME280;47463;49.884;10.010;2024-02-21T12:35:01;102160;;;9.9;69
61571;BME280;47463;49.884;10.010;2024-02-21T12:40:01;102160;;;9.7;66
61571;BME280;47463;49.884;10.010;2024-02-21T12:45:01;102140;;;9.9;67
61571;BME280;47463;49.884;10.010;2024-02-21T12:50:01;102140;;;9.9;68
61571;BME280;47463;49.884;10.010;2024-02-21T12:55:01;102120;;;9.9;67
61571;BME280;47463;49.884;10.010;2024-02-21T13:00:01;102110;;;9.9;67
61571;BME280;47463;49.884;10.010;2024-02-21T13:05:01;102100;;;9.7;67
61571;BME280;47463;49.884;10.010;2024-02-21T13:10:01;102090;;;9.7;66
61571;BME280;47463;49.884;10.010;2024-02-21T13:15:01;102090;;;9.8;66
61571;BME280;47463;49.884;10.010;2024-02-21T13:20:01;102070;;;9.8;65
61571;BME280;47463;49.884;10.010;2024-02-21T13:25:01;102050;;;9.7;65
61571;BME280;47463;49.884;10.010;2024-02-21T13:30:01;102040;;;9.7;65
61571;BME280;47463;49.884;10.010;2024-02-21T13:35:01;102030;;;9.9;66
61571;BME280;47463;49.884;10.010;2024-02-21T13:40:01;102010;;;9.9;65
61571;BME280;47463;49.884;10.010;2024-02-21T13:45:01;102020;;;9.9;65
61571;BME280;47463;49.884;10.010;2024-02-21T13:50:01;102010;;;9.9;66
61571;BME280;47463;49.884;10.010;2024-02-21T13:55:01;102010;;;10;65
61571;BME280;47463;49.884;10.010;2024-02-21T14:00:01;102010;;;10;65
61571;BME280;47463;49.884;10.010;2024-02-21T14:05:01;102000;;;9.9;64
61571;BME280;47463;49.884;10.010;2024-02-21T14:10:01;102000;;;9.8;64
61571;BME280;47463;49.884;10.010;2024-02-21T14:15:01;101980;;;9.7;64
61571;BME280;47463;49.884;10.010;2024-02-21T14:20:01;101980;;;9.7;65
61571;BME280;47463;49.884;10.010;2024-02-21T14:25:01;101970;;;9.6;65
61571;BME280;47463;49.884;10.010;2024-02-21T14:30:01;101960;;;9.6;65
61571;BME280;47463;49.884;10.010;2024-02-21T14:35:01;101960;;;9.5;65
61571;BME280;47463;49.884;10.010;2024-02-21T14:40:01;101960;;;9.5;66
61571;BME280;47463;49.884;10.010;2024-02-21T14:45:01;101940;;;9.4;65
61571;BME280;47463;49.884;10.010;2024-02-21T14:50:01;101930;;;9.5;65
61571;BME280;47463;49.884;10.010;2024-02-21T14:55:01;101930;;;9.5;64
61571;BME280;47463;49.884;10.010;2024-02-21T15:00:01;101920;;;9.5;63
61571;BME280;47463;49.884;10.010;2024-02-21T15:05:01;101910;;;9.5;64
61571;BME280;47463;49.884;10.010;2024-02-21T15:10:01;101910;;;9.5;64
61571;BME280;47463;49.884;10.010;2024-02-21T15:15:01;101900;;;9.5;63
61571;BME280;47463;49.884;10.010;2024-02-21T15:20:01;101890;;;9.5;62
61571;BME280;47463;49.884;10.010;2024-02-21T15:25:01;101880;;;9.4;64
61571;BME280;47463;49.884;10.010;2024-02-21T15:30:01;101870;;;9.4;64
61571;BME280;47463;49.884;10.010;2024-02-21T15:35:01;101850;;;9.4;64
61571;BME280;47463;49.884;10.010;2024-02-21T15:40:01;101840;;;9.3;65
61571;BME280;47463;49.884;10.010;2024-02-21T15:45:01;101830;;;9.3;64
61571;BME280;47463;49.884;10.010;2024-02-21T15:50:01;101810;;;9.2;66
61571;BME280;47463;49.884;10.010;2024-02-21T15:55:01;101800;;;9.1;66
61571;BME280;47463;49.884;10.010;2024-02-21T16:00:01;101800;;;9.1;67
61571;BME280;47463;49.884;10.010;2024-02-21T16:05:01;101770;;;8.9;67
61571;BME280;47463;49.884;10.010;2024-02-21T16:10:01;101760;;;8.9;67
61571;BME280;47463;49.884;10.010;2024-02-21T16:15:01;101760;;;8.8;68
61571;BME280;47463;49.884;10.010;2024-02-21T16:20:01;101750;;;8.6;68
61571;BME280;47463;49.884;10.010;2024-02-21T16:25:01;101740;;;8.6;68
61571;BME280;47463;49.884;10.010;2024-02-21T16:30:01;101750;;;8.6;68
61571;BME280;47463;49.884;10.010;2024-02-21T16:35:01;101730;;;8.6;67
61571;BME280;47463;49.884;10.010;2024-02-21T16:40:01;101720;;;8.5;68
61571;BME280;47463;49.884;10.010;2024-02-21T16:45:01;101720;;;8.5;67
61571;BME280;47463;49.884;10.010;2024-02-21T16:50:01;101710;;;8.6;66
61571;BME280;47463;49.884;10.010;2024-02-21T16:55:01;101700;;;8.5;66
61571;BME280;47463;49.884;10.010;2024-02-21T17:00:01;101700;;;8.4;67
61571;BME280;47463;49.884;10.010;2024-02-21T17:05:01;101700;;;8.4;67
61571;BME280;47463;49.884;10.010;2024-02-21T17:10:01;101680;;;8.3;67
61571;BME280;47463;49.884;10.010;2024-02-21T17:15:01;101680;;;8.3;67
61571;BME280;47463;49.884;10.010;2024-02-21T17:20:01;101670;;;8.2;68
61571;BME280;47463;49.884;10.010;2024-02-21T17:25:01;101670;;;8.3;68
61571;BME280;47463;49.884;10.010;2024-02-21T17:30:01;101670;;;8.3;67
61571;BME280;47463;49.884;10.010;2024-02-21T17:35:01;101670;;;8.2;68
61571;BME280;47463;49.884;10.010;2024-02-21T17:40:01;101670;;;8.3;67
61571;BME280;47463;49.884;10.010;2024-02-21T17:45:01;101650;;;8.3;67
61571;BME280;47463;49.884;10.010;2024-02-21T17:50:01;101650;;;8.3;66
61571;BME280;47463;49.884;10.010;2024-02-21T17:55:01;101640;;;8.3;66
61571;BME280;47463;49.884;10.010;2024-02-21T18:00:01;101640;;;8.2;66
61571;BME280;47463;49.884;10.010;2024-02-21T18:05:01;101620;;;8.2;66
61571;BME280;47463;49.884;10.010;2024-02-21T18:10:01;101610;;;8.4;65
61571;BME280;47463;49.884;10.010;2024-02-21T18:15:01;101620;;;8.4;64
61571;BME280;47463;49.884;10.010;2024-02-21T18:20:01;101610;;;8.1;66
61571;BME280;47463;49.884;10.010;2024-02-21T18:25:01;101600;;;8.2;66
61571;BME280;47463;49.884;10.010;2024-02-21T18:30:01;101590;;;7.9;68
61571;BME280;47463;49.884;10.010;2024-02-21T18:35:01;101580;;;7.8;69
61571;BME280;47463;49.884;10.010;2024-02-21T18:40:01;101570;;;7.7;70
61571;BME280;47463;49.884;10.010;2024-02-21T18:45:01;101560;;;7.7;69
61571;BME280;47463;49.884;10.010;2024-02-21T18:50:01;101560;;;7.7;69
61571;BME280;47463;49.884;10.010;2024-02-21T18:55:01;101560;;;7.9;67
61571;BME280;47463;49.884;10.010;2024-02-21T19:00:01;101540;;;8;67
61571;BME280;47463;49.884;10.010;2024-02-21T19:05:01;101530;;;7.8;68
61571;BME280;47463;49.884;10.010;2024-02-21T19:10:01;101530;;;7.9;67
61571;BME280;47463;49.884;10.010;2024-02-21T19:15:01;101520;;;7.9;67
61571;BME280;47463;49.884;10.010;2024-02-21T19:20:01;101520;;;7.8;68
61571;BME280;47463;49.884;10.010;2024-02-21T19:25:01;101510;;;8;67
61571;BME280;47463;49.884;10.010;2024-02-21T19:30:01;101500;;;8;67
61571;BME280;47463;49.884;10.010;2024-02-21T19:35:01;101510;;;8;68
61571;BME280;47463;49.884;10.010;2024-02-21T19:40:01;101500;;;8;68
61571;BME280;47463;49.884;10.010;2024-02-21T19:45:01;101480;;;7.9;68
61571;BME280;47463;49.884;10.010;2024-02-21T19:50:01;101470;;;7.8;69
61571;BME280;47463;49.884;10.010;2024-02-21T19:55:01;101450;;;7.9;68
61571;BME280;47463;49.884;10.010;2024-02-21T20:00:02;101470;;;8;68
61571;BME280;47463;49.884;10.010;2024-02-21T20:05:01;101450;;;7.9;68
61571;BME280;47463;49.884;10.010;2024-02-21T20:10:01;101430;;;8;67
61571;BME280;47463;49.884;10.010;2024-02-21T20:15:01;101420;;;8.3;65
61571;BME280;47463;49.884;10.010;2024-02-21T20:20:01;101420;;;8.2;65
61571;BME280;47463;49.884;10.010;2024-02-21T20:25:01;101410;;;8.2;65
61571;BME280;47463;49.884;10.010;2024-02-21T20:30:01;101390;;;8.3;65
61571;BME280;47463;49.884;10.010;2024-02-21T20:35:01;101390;;;8.2;65
61571;BME280;47463;49.884;10.010;2024-02-21T20:40:01;101390;;;8.1;65
61571;BME280;47463;49.884;10.010;2024-02-21T20:45:01;101380;;;8;66
61571;BME280;47463;49.884;10.010;2024-02-21T20:50:01;101360;;;8;66
61571;BME280;47463;49.884;10.010;2024-02-21T20:55:01;101370;;;8;66
61571;BME280;47463;49.884;10.010;2024-02-21T21:00:01;101360;;;8.1;65
61571;BME280;47463;49.884;10.010;2024-02-21T21:05:01;101360;;;8.1;66
61571;BME280;47463;49.884;10.010;2024-02-21T21:10:01;101340;;;8;65
61571;BME280;47463;49.884;10.010;2024-02-21T21:15:01;101350;;;8.2;65
61571;BME280;47463;49.884;10.010;2024-02-21T21:20:01;101350;;;8.2;65
61571;BME280;47463;49.884;10.010;2024-02-21T21:25:01;101340;;;8.2;65
61571;BME280;47463;49.884;10.010;2024-02-21T21:30:01;101330;;;8.2;65
61571;BME280;47463;49.884;10.010;2024-02-21T21:35:01;101320;;;8.2;65
61571;BME280;47463;49.884;10.010;2024-02-21T21:40:01;101330;;;8.1;66
61571;BME280;47463;49.884;10.010;2024-02-21T21:45:01;101320;;;8;66
61571;BME280;47463;49.884;10.010;2024-02-21T21:50:01;101310;;;8;66
61571;BME280;47463;49.884;10.010;2024-02-21T21:55:01;101290;;;8.1;66
61571;BME280;47463;49.884;10.010;2024-02-21T22:00:01;101280;;;8.1;66
61571;BME280;47463;49.884;10.010;2024-02-21T22:05:01;101270;;;8.2;65
61571;BME280;47463;49.884;10.010;2024-02-21T22:10:01;101260;;;8.4;64
61571;BME280;47463;49.884;10.010;2024-02-21T22:15:01;101240;;;9;61
61571;BME280;47463;49.884;10.010;2024-02-21T22:20:01;101230;;;9.2;60
61571;BME280;47463;49.884;10.010;2024-02-21T22:25:01;101210;;;9.2;60
61571;BME280;47463;49.884;10.010;2024-02-21T22:30:01;101210;;;9.2;60
61571;BME280;47463;49.884;10.010;2024-02-21T22:35:01;101200;;;9.2;60
61571;BME280;47463;49.884;10.010;2024-02-21T22:40:01;101190;;;9.2;60
61571;BME280;47463;49.884;10.010;2024-02-21T22:45:01;101190;;;9.4;59
61571;BME280;47463;49.884;10.010;2024-02-21T22:50:01;101190;;;9.4;59
61571;BME280;47463;49.884;10.010;2024-02-21T22:55:01;101190;;;9.4;59
61571;BME280;47463;49.884;10.010;2024-02-21T23:00:01;101170;;;9.5;60
61571;BME280;47463;49.884;10.010;2024-02-21T23:05:01;101160;;;9.5;60
61571;BME280;47463;49.884;10.010;2024-02-21T23:10:01;101160;;;9.2;62
61571;BME280;47463;49.884;10.010;2024-02-21T23:15:01;101160;;;9.1;63
61571;BME280;47463;49.884;10.010;2024-02-21T23:20:01;101150;;;9.1;62
61571;BME280;47463;49.884;10.010;2024-02-21T23:25:01;101140;;;9.1;63
61571;BME280;47463;49.884;10.010;2024-02-21T23:30:01;101150;;;8.9;64
61571;BME280;47463;49.884;10.010;2024-02-21T23:35:01;101130;;;8.7;65
61571;BME280;47463;49.884;10.010;2024-02-21T23:40:01;101100;;;8.5;66
61571;BME280;47463;49.884;10.010;2024-02-21T23:45:01;101090;;;8.4;68
61571;BME280;47463;49.884;10.010;2024-02-21T23:50:01;101080;;;8.2;68
61571;BME280;47463;49.884;10.010;2024-02-21T23:55:01;101060;;;8.4;68
